Time;durP1;ratioP1;P1;durP2;ratioP2;P2;SDS_P1;SDS_P2;PMS_P1;PMS_P2;Temp;Humidity;BMP_temperature;BMP_pressure;BME280_temperature;BME280_humidity;BME280_pressure;Samples;Min_cycle;Max_cycle;Signal;HPM_P1;HPM_P2
2021/03/11 00:01:42;;;;;;;29.85;16.73;;;10.40;75.80;;;;;;5031819;28;20112;-67
2021/03/11 00:04:07;;;;;;;28.40;16.75;;;10.50;75.70;;;;;;5039390;28;20029;-67
2021/03/11 00:06:33;;;;;;;26.42;15.65;;;10.50;75.50;;;;;;5049323;28;20581;-67
2021/03/11 00:08:58;;;;;;;29.50;17.08;;;10.50;75.40;;;;;;5047524;28;20033;-67
2021/03/11 00:11:24;;;;;;;25.10;14.88;;;10.40;75.20;;;;;;5034837;28;20036;-67
2021/03/11 00:13:49;;;;;;;29.48;16.65;;;10.50;75.20;;;;;;5031835;28;20038;-67
2021/03/11 00:16:15;;;;;;;24.48;14.18;;;10.50;75.00;;;;;;5031641;28;20029;-67
2021/03/11 00:18:41;;;;;;;24.40;14.20;;;10.50;74.90;;;;;;5040034;28;20383;-67
2021/03/11 00:21:06;;;;;;;24.60;15.48;;;10.50;74.50;;;;;;4994714;28;20061;-67
2021/03/11 00:23:33;;;;;;;25.10;16.75;;;10.50;74.40;;;;;;5032199;28;20486;-66
2021/03/11 00:25:58;;;;;;;26.90;16.70;;;10.50;74.30;;;;;;5049423;28;20410;-66
2021/03/11 00:28:24;;;;;;;25.23;16.05;;;10.60;74.40;;;;;;5033988;28;20059;-65
2021/03/11 00:30:50;;;;;;;25.08;15.88;;;10.60;74.20;;;;;;5055443;28;20494;-66
2021/03/11 00:33:16;;;;;;;30.45;17.88;;;10.60;74.40;;;;;;5056075;28;20463;-66
2021/03/11 00:35:41;;;;;;;24.63;15.80;;;10.60;74.40;;;;;;5054239;28;20029;-66
2021/03/11 00:38:07;;;;;;;23.10;14.35;;;10.60;74.30;;;;;;5055798;28;20964;-66
2021/03/11 00:40:33;;;;;;;26.90;17.88;;;10.60;74.30;;;;;;5037525;28;20033;-67
2021/03/11 00:43:00;;;;;;;22.17;13.60;;;10.60;74.30;;;;;;5056561;28;20107;-66
2021/03/11 00:45:25;;;;;;;26.10;16.38;;;10.60;74.20;;;;;;5037615;28;20419;-66
2021/03/11 00:47:51;;;;;;;27.73;17.73;;;10.60;74.30;;;;;;5056380;28;20114;-67
2021/03/11 00:50:22;;;;;;;49.83;16.50;;;10.50;74.30;;;;;;5029990;28;20164;-67
2021/03/11 00:52:48;;;;;;;25.20;15.75;;;10.60;74.30;;;;;;5048102;28;20048;-65
2021/03/11 00:55:16;;;;;;;33.22;16.38;;;10.60;74.10;;;;;;5051869;28;20203;-67
2021/03/11 00:57:42;;;;;;;25.77;17.00;;;10.60;74.00;;;;;;5056005;28;20032;-67
2021/03/11 01:00:11;;;;;;;26.38;15.65;;;10.60;74.00;;;;;;5055250;28;20443;-67
2021/03/11 01:02:36;;;;;;;25.95;16.02;;;10.60;74.00;;;;;;5056254;28;20037;-67
2021/03/11 01:05:03;;;;;;;27.45;15.48;;;10.60;74.20;;;;;;5052699;28;20029;-67
2021/03/11 01:07:29;;;;;;;25.48;14.82;;;10.60;74.20;;;;;;5038153;28;20120;-67
2021/03/11 01:09:55;;;;;;;24.17;14.63;;;10.60;74.20;;;;;;5053708;28;20128;-67
2021/03/11 01:12:20;;;;;;;28.13;17.15;;;10.60;74.20;;;;;;5055853;28;20056;-67
2021/03/11 01:14:46;;;;;;;26.13;15.45;;;10.60;74.30;;;;;;5048515;28;20048;-67
2021/03/11 01:17:12;;;;;;;25.85;16.73;;;10.60;74.20;;;;;;5026466;28;20044;-67
2021/03/11 01:19:38;;;;;;;21.10;13.93;;;9.90;73.90;;;;;;5040994;28;20029;-67
2021/03/11 01:22:03;;;;;;;23.90;15.05;;;10.70;74.30;;;;;;5056720;28;20037;-67
2021/03/11 01:24:30;;;;;;;22.88;13.82;;;10.80;74.10;;;;;;5049761;28;20033;-68
2021/03/11 01:26:56;;;;;;;23.95;13.98;;;10.80;74.20;;;;;;5055664;28;20060;-67
2021/03/11 01:29:22;;;;;;;22.25;14.73;;;10.80;74.20;;;;;;5020488;28;20061;-67
2021/03/11 01:31:47;;;;;;;21.90;15.00;;;10.90;74.20;;;;;;5037897;28;20044;-67
2021/03/11 01:34:13;;;;;;;20.70;13.45;;;10.80;74.40;;;;;;5036476;28;20025;-67
2021/03/11 01:36:39;;;;;;;21.42;13.57;;;10.80;74.40;;;;;;5056074;28;20047;-67
2021/03/11 01:39:05;;;;;;;25.05;15.93;;;10.90;74.40;;;;;;5044957;28;20377;-67
2021/03/11 01:41:30;;;;;;;21.92;14.13;;;11.00;74.50;;;;;;5034353;28;20131;-66
2021/03/11 01:43:57;;;;;;;22.92;13.13;;;10.90;74.70;;;;;;5046019;28;20041;-66
2021/03/11 01:46:26;;;;;;;23.33;15.18;;;10.90;74.90;;;;;;5046284;28;20104;-67
2021/03/11 01:48:52;;;;;;;21.90;13.77;;;11.00;75.20;;;;;;5028454;28;20056;-67
2021/03/11 01:51:19;;;;;;;22.63;13.05;;;10.90;75.30;;;;;;5037502;28;20506;-67
2021/03/11 01:53:49;;;;;;;21.95;14.38;;;10.90;75.70;;;;;;5045970;28;20054;-67
2021/03/11 01:56:15;;;;;;;22.30;14.25;;;10.90;75.80;;;;;;5049425;28;20033;-67
2021/03/11 01:58:42;;;;;;;23.05;15.18;;;10.90;75.80;;;;;;5051696;28;20053;-67
2021/03/11 02:01:07;;;;;;;22.02;13.85;;;10.90;75.60;;;;;;5051077;28;20036;-67
2021/03/11 02:03:33;;;;;;;20.58;12.55;;;11.00;75.50;;;;;;5051188;28;20040;-67
2021/03/11 02:05:59;;;;;;;23.50;15.20;;;11.00;75.40;;;;;;5051742;28;20037;-67
2021/03/11 02:08:25;;;;;;;20.70;13.35;;;11.00;75.40;;;;;;5051293;28;20052;-66
2021/03/11 02:10:51;;;;;;;21.27;13.82;;;11.00;75.20;;;;;;5051755;28;20051;-67
2021/03/11 02:13:29;;;;;;;21.30;14.13;;;11.00;75.30;;;;;;5052246;28;20108;-67
2021/03/11 02:16:03;;;;;;;22.05;13.82;;;11.00;75.50;;;;;;5050652;28;20021;-67
2021/03/11 02:18:37;;;;;;;18.63;11.77;;;11.00;75.50;;;;;;5051423;28;20087;-67
2021/03/11 02:21:07;;;;;;;21.08;12.45;;;11.00;75.50;;;;;;5049093;28;20060;-67
2021/03/11 02:24:10;;;;;;;23.63;13.85;;;11.00;75.60;;;;;;5040732;28;20024;-67
2021/03/11 02:27:04;;;;;;;18.65;13.20;;;11.00;75.70;;;;;;5050950;28;20061;-67
2021/03/11 02:29:35;;;;;;;17.42;11.95;;;11.00;75.80;;;;;;5045834;28;20075;-67
2021/03/11 02:32:03;;;;;;;20.02;14.23;;;11.00;76.00;;;;;;5032028;28;20063;-67
2021/03/11 02:34:33;;;;;;;17.00;11.70;;;11.00;76.00;;;;;;5051355;28;20021;-67
2021/03/11 02:37:23;;;;;;;19.13;12.13;;;11.00;76.20;;;;;;5050659;28;20029;-67
2021/03/11 02:39:54;;;;;;;16.85;11.25;;;11.00;76.40;;;;;;5036122;28;20049;-67
2021/03/11 02:42:22;;;;;;;15.98;10.50;;;11.00;76.70;;;;;;5050931;28;20025;-67
2021/03/11 02:44:48;;;;;;;15.75;11.25;;;11.00;76.70;;;;;;5050859;28;20032;-67
2021/03/11 02:47:13;;;;;;;24.02;11.85;;;11.00;76.60;;;;;;5050397;28;20086;-67
2021/03/11 02:49:40;;;;;;;16.40;10.38;;;11.10;76.70;;;;;;5050907;28;20327;-67
2021/03/11 02:52:06;;;;;;;15.98;11.63;;;11.10;76.70;;;;;;5051093;28;20355;-67
2021/03/11 02:54:32;;;;;;;17.90;12.65;;;11.10;76.60;;;;;;5031329;28;20025;-67
2021/03/11 02:57:01;;;;;;;17.75;11.55;;;11.20;76.50;;;;;;5050242;28;20025;-67
2021/03/11 02:59:28;;;;;;;15.57;9.85;;;11.20;76.70;;;;;;5044212;28;20029;-66
2021/03/11 03:01:55;;;;;;;25.05;10.65;;;11.20;76.80;;;;;;5041744;28;20081;-67
2021/03/11 03:04:22;;;;;;;17.77;12.30;;;11.20;76.90;;;;;;5046114;28;20029;-67
2021/03/11 03:06:48;;;;;;;13.45;9.85;;;11.20;76.90;;;;;;5040879;28;20029;-67
2021/03/11 03:09:17;;;;;;;16.00;11.20;;;11.20;76.90;;;;;;5047590;28;20468;-67
2021/03/11 03:11:43;;;;;;;13.63;9.68;;;11.20;76.90;;;;;;5030676;28;20030;-67
2021/03/11 03:14:09;;;;;;;13.07;9.00;;;11.20;76.70;;;;;;5038248;28;20083;-68
2021/03/11 03:16:36;;;;;;;15.23;10.65;;;11.30;76.70;;;;;;5049648;28;20037;-67
2021/03/11 03:19:03;;;;;;;13.77;9.90;;;11.20;76.80;;;;;;5049675;28;20395;-67
2021/03/11 03:21:29;;;;;;;13.80;9.55;;;11.20;76.80;;;;;;5050710;28;20070;-67
2021/03/11 03:23:58;;;;;;;14.32;9.82;;;11.20;76.70;;;;;;5026200;28;20458;-67
2021/03/11 03:26:24;;;;;;;16.17;12.93;;;11.20;77.00;;;;;;5044409;28;20033;-67
2021/03/11 03:28:50;;;;;;;14.38;9.48;;;11.30;77.10;;;;;;5050510;28;20028;-67
2021/03/11 03:31:16;;;;;;;13.88;9.70;;;11.30;77.10;;;;;;5049669;28;20032;-67
2021/03/11 03:33:41;;;;;;;12.80;9.30;;;11.30;77.20;;;;;;5050597;28;20470;-67
2021/03/11 03:36:07;;;;;;;13.98;10.00;;;11.30;77.30;;;;;;5048504;28;20052;-66
2021/03/11 03:38:33;;;;;;;19.67;11.52;;;11.40;77.40;;;;;;5049354;28;20189;-66
2021/03/11 03:41:00;;;;;;;15.52;9.25;;;11.40;77.80;;;;;;5031697;28;20033;-67
2021/03/11 03:43:30;;;;;;;14.80;10.27;;;11.30;77.90;;;;;;5032211;28;20102;-67
2021/03/11 03:46:09;;;;;;;16.50;11.65;;;11.40;78.10;;;;;;5049029;28;20421;-66
2021/03/11 03:48:44;;;;;;;16.45;10.68;;;11.40;78.30;;;;;;5050503;28;20132;-67
2021/03/11 03:51:12;;;;;;;14.25;9.63;;;11.40;78.30;;;;;;5039305;28;20072;-67
2021/03/11 03:53:42;;;;;;;15.43;10.73;;;11.40;78.30;;;;;;5050318;28;20025;-67
2021/03/11 03:56:21;;;;;;;16.15;11.45;;;11.50;78.50;;;;;;5017849;28;20471;-67
2021/03/11 03:58:48;;;;;;;15.85;10.73;;;11.40;78.60;;;;;;5041879;28;20021;-67
2021/03/11 04:01:15;;;;;;;14.55;9.75;;;11.40;78.70;;;;;;5029236;28;20124;-67
2021/03/11 04:03:41;;;;;;;15.93;10.88;;;11.50;78.80;;;;;;5035792;28;20144;-67
2021/03/11 04:06:09;;;;;;;18.58;12.48;;;11.50;79.00;;;;;;5013222;28;20155;-67
2021/03/11 04:08:36;;;;;;;16.63;11.68;;;11.50;79.00;;;;;;5045084;28;20029;-67
2021/03/11 04:11:03;;;;;;;16.23;10.80;;;11.50;78.90;;;;;;5034554;28;20032;-68
2021/03/11 04:13:31;;;;;;;18.15;11.02;;;11.50;78.90;;;;;;5049642;28;20033;-67
2021/03/11 04:15:57;;;;;;;17.52;11.68;;;11.50;79.10;;;;;;5048653;28;20040;-67
2021/03/11 04:18:23;;;;;;;18.63;11.88;;;11.50;79.30;;;;;;5033322;28;20034;-68
2021/03/11 04:20:50;;;;;;;16.00;11.18;;;11.50;79.30;;;;;;5030107;28;20029;-67
2021/03/11 04:23:16;;;;;;;14.95;10.32;;;11.50;79.40;;;;;;5032845;28;20128;-67
2021/03/11 04:25:42;;;;;;;17.83;11.25;;;11.60;79.40;;;;;;5030107;28;20076;-68
2021/03/11 04:28:08;;;;;;;15.82;10.82;;;11.60;79.40;;;;;;5030395;28;20075;-67
2021/03/11 04:30:34;;;;;;;18.52;12.27;;;11.60;79.30;;;;;;5029630;28;20037;-68
2021/03/11 04:33:00;;;;;;;15.85;10.43;;;11.60;79.40;;;;;;5030034;28;20033;-67
2021/03/11 04:35:26;;;;;;;15.85;10.38;;;11.60;79.30;;;;;;5035066;28;20476;-67
2021/03/11 04:37:52;;;;;;;17.67;11.15;;;11.70;79.30;;;;;;5046341;28;20037;-67
2021/03/11 04:40:18;;;;;;;17.17;11.85;;;11.70;79.40;;;;;;5049435;28;20029;-68
2021/03/11 04:42:45;;;;;;;17.60;11.20;;;11.70;79.50;;;;;;5032116;28;20596;-67
2021/03/11 04:45:10;;;;;;;16.75;10.65;;;11.70;79.40;;;;;;5048312;28;20132;-67
2021/03/11 04:47:37;;;;;;;16.88;12.88;;;11.80;79.30;;;;;;5032005;28;20472;-67
2021/03/11 04:50:05;;;;;;;16.77;11.10;;;11.80;79.20;;;;;;5047974;28;20486;-67
2021/03/11 04:52:33;;;;;;;17.10;12.13;;;11.80;79.20;;;;;;5047974;28;20029;-67
2021/03/11 04:55:00;;;;;;;17.33;11.52;;;11.90;79.40;;;;;;5031332;28;20040;-67
2021/03/11 04:57:29;;;;;;;17.60;10.80;;;11.80;79.40;;;;;;5049638;28;20037;-67
2021/03/11 04:59:58;;;;;;;22.58;12.32;;;11.90;79.40;;;;;;5049187;28;20056;-67
2021/03/11 05:02:29;;;;;;;19.10;13.05;;;11.90;79.40;;;;;;5037744;28;20032;-67
2021/03/11 05:04:54;;;;;;;17.63;12.52;;;11.90;79.50;;;;;;5049286;28;20025;-67
2021/03/11 05:07:20;;;;;;;18.73;13.23;;;11.90;79.50;;;;;;5048782;28;20052;-67
2021/03/11 05:09:46;;;;;;;18.98;12.02;;;11.90;79.50;;;;;;5049260;28;20044;-67
2021/03/11 05:12:11;;;;;;;16.75;10.95;;;12.00;79.40;;;;;;5030893;28;20399;-67
2021/03/11 05:14:37;;;;;;;19.00;13.00;;;12.00;79.40;;;;;;5050811;28;20059;-67
2021/03/11 05:17:03;;;;;;;19.10;13.32;;;12.00;79.40;;;;;;5051103;28;20033;-67
2021/03/11 05:19:28;;;;;;;19.83;13.10;;;12.00;79.40;;;;;;5053738;28;20040;-67
2021/03/11 05:21:54;;;;;;;21.92;14.95;;;12.00;79.50;;;;;;5052641;28;20453;-67
2021/03/11 05:24:20;;;;;;;17.67;11.40;;;12.00;79.30;;;;;;5053879;28;20112;-67
2021/03/11 05:26:45;;;;;;;18.08;12.15;;;12.10;79.20;;;;;;5052980;28;20383;-67
2021/03/11 05:29:11;;;;;;;20.80;12.35;;;12.10;79.10;;;;;;5045472;28;20067;-67
2021/03/11 05:31:36;;;;;;;18.25;12.82;;;12.10;79.00;;;;;;5051682;28;20064;-67
2021/03/11 05:34:02;;;;;;;15.57;10.18;;;12.10;79.00;;;;;;5047522;28;20518;-67
2021/03/11 05:36:28;;;;;;;18.75;11.95;;;12.20;78.80;;;;;;5049215;28;20029;-67
2021/03/11 05:38:54;;;;;;;20.73;12.30;;;12.20;78.70;;;;;;5037758;28;20478;-67
2021/03/11 05:41:21;;;;;;;17.55;11.00;;;12.20;78.70;;;;;;5052380;28;20112;-67
2021/03/11 05:43:50;;;;;;;19.30;13.00;;;12.30;78.70;;;;;;5052277;28;20163;-67
2021/03/11 05:46:17;;;;;;;19.95;12.85;;;12.30;78.90;;;;;;5051015;28;20048;-66
2021/03/11 05:48:43;;;;;;;24.45;11.77;;;12.30;78.90;;;;;;5052864;28;20036;-66
2021/03/11 05:51:10;;;;;;;17.33;11.25;;;12.40;79.00;;;;;;5036833;28;20533;-67
2021/03/11 05:53:36;;;;;;;17.85;12.02;;;12.30;79.00;;;;;;5015058;28;20062;-66
2021/03/11 05:56:02;;;;;;;16.67;11.18;;;12.40;79.20;;;;;;5046229;28;20040;-67
2021/03/11 05:58:28;;;;;;;19.35;12.30;;;12.30;79.60;;;;;;5019926;28;20033;-66
2021/03/11 06:00:54;;;;;;;16.65;9.73;;;12.30;79.90;;;;;;5029516;28;20042;-66
2021/03/11 06:03:24;;;;;;;17.90;11.70;;;12.30;80.00;;;;;;5032446;28;20199;-66
2021/03/11 06:05:50;;;;;;;16.63;11.73;;;12.30;80.00;;;;;;5044011;28;20084;-66
2021/03/11 06:08:22;;;;;;;16.38;10.38;;;12.30;79.90;;;;;;5050411;28;20036;-66
2021/03/11 06:10:53;;;;;;;15.00;9.80;;;12.30;79.70;;;;;;5052309;28;20463;-66
2021/03/11 06:13:19;;;;;;;16.17;10.32;;;12.40;79.60;;;;;;5049006;28;20039;-65
2021/03/11 06:15:46;;;;;;;14.73;9.93;;;12.40;79.40;;;;;;5051267;28;20029;-66
2021/03/11 06:18:11;;;;;;;16.20;10.80;;;12.10;79.10;;;;;;5034177;28;20037;-67
2021/03/11 06:20:38;;;;;;;17.13;10.57;;;12.50;79.10;;;;;;5051585;28;20087;-67
2021/03/11 06:23:04;;;;;;;16.85;11.00;;;12.50;79.00;;;;;;5051509;28;20044;-68
2021/03/11 06:25:29;;;;;;;17.73;10.88;;;12.50;78.90;;;;;;5047189;28;20030;-68
2021/03/11 06:27:55;;;;;;;17.27;10.43;;;12.50;78.90;;;;;;5034105;28;20037;-66
2021/03/11 06:30:37;;;;;;;16.30;11.02;;;12.50;78.90;;;;;;5050910;28;20386;-68
2021/03/11 06:33:04;;;;;;;14.55;9.35;;;12.50;78.80;;;;;;5051587;28;20070;-70
2021/03/11 06:35:32;;;;;;;17.05;10.23;;;12.60;78.60;;;;;;5052019;28;20021;-69
2021/03/11 06:37:58;;;;;;;15.93;8.77;;;12.60;78.30;;;;;;5051860;28;20033;-69
2021/03/11 06:40:26;;;;;;;14.10;9.07;;;12.70;78.30;;;;;;5033477;28;20102;-69
2021/03/11 06:43:07;;;;;;;14.85;9.10;;;12.80;78.10;;;;;;5017628;28;20029;-69
2021/03/11 06:45:33;;;;;;;15.77;9.82;;;12.80;77.80;;;;;;5051292;28;20029;-69
2021/03/11 06:48:31;;;;;;;15.07;8.75;;;12.80;77.70;;;;;;5051633;28;20051;-69
2021/03/11 06:50:58;;;;;;;13.82;9.02;;;12.90;77.40;;;;;;5000831;28;20052;-70
2021/03/11 06:53:24;;;;;;;16.52;8.88;;;12.90;77.40;;;;;;5052062;28;20021;-73
2021/03/11 06:55:51;;;;;;;15.40;7.50;;;12.90;77.20;;;;;;5042747;28;20553;-67
2021/03/11 06:58:20;;;;;;;16.70;9.02;;;13.00;77.10;;;;;;5036207;28;20055;-67
2021/03/11 07:00:48;;;;;;;13.63;7.88;;;13.00;77.00;;;;;;5030736;28;20091;-68
2021/03/11 07:03:14;;;;;;;12.18;7.10;;;13.10;77.00;;;;;;5045354;28;20475;-68
2021/03/11 07:05:44;;;;;;;12.13;7.85;;;13.20;76.90;;;;;;5037256;28;20029;-68
2021/03/11 07:08:18;;;;;;;12.23;7.65;;;13.20;76.60;;;;;;5035083;28;20030;-68
2021/03/11 07:10:47;;;;;;;11.38;7.70;;;13.20;76.00;;;;;;5042606;28;20116;-68
2021/03/11 07:13:13;;;;;;;14.73;7.90;;;13.20;75.80;;;;;;5049868;28;20039;-68
2021/03/11 07:15:40;;;;;;;13.65;7.38;;;13.20;75.90;;;;;;5048243;28;20047;-68
2021/03/11 07:18:10;;;;;;;12.10;7.15;;;13.20;75.60;;;;;;5030290;28;20117;-67
2021/03/11 07:20:36;;;;;;;11.82;6.45;;;13.30;75.00;;;;;;5037572;28;20029;-67
2021/03/11 07:23:10;;;;;;;10.18;5.63;;;13.40;74.30;;;;;;5021896;28;20021;-68
2021/03/11 07:25:40;;;;;;;16.98;6.53;;;13.50;73.50;;;;;;5034147;28;20579;-68
2021/03/11 07:28:08;;;;;;;10.52;5.07;;;13.60;72.60;;;;;;5041477;28;20328;-67
2021/03/11 07:30:57;;;;;;;9.57;4.22;;;14.00;71.70;;;;;;5035777;28;20136;-67
2021/03/11 07:33:28;;;;;;;14.55;5.55;;;15.10;68.70;;;;;;5040248;28;20091;-67
2021/03/11 07:35:57;;;;;;;13.05;5.28;;;15.30;68.20;;;;;;5047793;28;20034;-68
2021/03/11 07:38:24;;;;;;;12.35;4.97;;;17.50;58.80;;;;;;5047544;28;20128;-66
2021/03/11 07:40:56;;;;;;;10.27;4.32;;;18.40;56.20;;;;;;5040629;28;20041;-67
2021/03/11 07:43:23;;;;;;;12.55;4.22;;;18.50;56.60;;;;;;5048773;28;20439;-66
2021/03/11 07:45:49;;;;;;;8.73;3.90;;;19.70;52.20;;;;;;5031011;28;20116;-66
2021/03/11 07:48:16;;;;;;;10.63;3.60;;;20.30;50.60;;;;;;5048844;28;20154;-66
2021/03/11 07:50:43;;;;;;;13.00;4.30;;;20.40;52.00;;;;;;5032338;28;20458;-65
2021/03/11 07:53:09;;;;;;;10.52;3.78;;;21.90;48.20;;;;;;5036495;28;20116;-66
2021/03/11 07:55:36;;;;;;;9.48;3.70;;;22.70;46.40;;;;;;5049563;28;20040;-66
2021/03/11 07:58:11;;;;;;;7.60;3.80;;;22.30;45.80;;;;;;5048246;28;20117;-67
2021/03/11 08:00:37;;;;;;;10.32;3.88;;;21.50;47.80;;;;;;5042703;28;20572;-67
2021/03/11 08:03:10;;;;;;;9.80;3.80;;;21.30;48.60;;;;;;5024681;28;20108;-67
2021/03/11 08:05:35;;;;;;;;;;;20.60;48.90;;;;;;5043933;28;20030;-67
2021/03/11 08:08:19;;;;;;;7.68;3.45;;;19.00;51.80;;;;;;5039147;28;20023;-67
2021/03/11 08:10:47;;;;;;;;;;;18.70;53.20;;;;;;5027709;28;20490;-67
2021/03/11 08:13:36;;;;;;;6.55;3.00;;;17.50;55.60;;;;;;5028406;28;19913;-67
2021/03/11 08:16:16;;;;;;;10.15;3.85;;;17.10;57.20;;;;;;5035300;28;20021;-67
2021/03/11 08:18:44;;;;;;;8.82;3.40;;;17.20;56.20;;;;;;5047345;28;20124;-66
2021/03/11 08:21:25;;;;;;;8.27;3.40;;;17.20;56.30;;;;;;5031226;28;20032;-66
2021/03/11 08:23:55;;;;;;;16.35;4.05;;;16.90;56.00;;;;;;5026898;28;20102;-66
2021/03/11 08:26:50;;;;;;;11.82;2.55;;;16.90;56.20;;;;;;5028066;28;20526;-67
2021/03/11 08:29:15;;;;;;;14.45;3.38;;;17.10;54.70;;;;;;5018621;28;20052;-66
2021/03/11 08:31:47;;;;;;;10.32;3.10;;;17.20;54.40;;;;;;5046332;28;20044;-66
2021/03/11 08:34:35;;;;;;;10.07;3.10;;;17.40;53.90;;;;;;5047615;28;20025;-67
2021/03/11 08:37:22;;;;;;;12.38;3.47;;;17.70;51.90;;;;;;5041998;28;20043;-66
2021/03/11 08:39:49;;;;;;;10.48;3.00;;;18.40;50.40;;;;;;5043862;28;20041;-66
2021/03/11 08:42:45;;;;;;;10.90;3.25;;;18.60;49.80;;;;;;5046679;28;20859;-66
2021/03/11 08:45:12;;;;;;;10.48;2.80;;;18.50;49.00;;;;;;5046176;28;20082;-67
2021/03/11 08:48:20;;;;;;;11.40;3.35;;;18.20;50.00;;;;;;5046542;28;20477;-66
2021/03/11 08:50:48;;;;;;;11.00;3.28;;;18.20;49.60;;;;;;5051246;28;20231;-67
2021/03/11 08:53:52;;;;;;;13.38;4.05;;;17.80;49.60;;;;;;5045417;28;20475;-67
2021/03/11 08:56:18;;;;;;;11.52;3.03;;;17.10;50.40;;;;;;5036148;28;20079;-68
2021/03/11 08:59:12;;;;;;;12.25;3.97;;;16.80;51.70;;;;;;5028869;28;20037;-67
2021/03/11 09:01:51;;;;;;;17.98;4.38;;;16.40;52.10;;;;;;5050308;28;20049;-67
2021/03/11 09:04:20;;;;;;;12.30;3.35;;;16.20;53.10;;;;;;5051894;28;20029;-68
2021/03/11 09:06:55;;;;;;;14.75;3.83;;;16.30;53.20;;;;;;5030995;28;20034;-67
2021/03/11 09:09:45;;;;;;;21.90;4.57;;;16.30;52.90;;;;;;5044455;28;20029;-68
2021/03/11 09:12:17;;;;;;;20.17;4.32;;;16.50;52.60;;;;;;5023706;28;20044;-68
2021/03/11 09:14:50;;;;;;;14.48;3.58;;;16.20;52.50;;;;;;5040637;28;20121;-68
2021/03/11 09:17:19;;;;;;;;;;;16.10;53.30;;;;;;5021741;28;20096;-68
2021/03/11 09:19:47;;;;;;;11.85;2.85;;;16.00;53.60;;;;;;5034892;28;19909;-68
2021/03/11 09:22:39;;;;;;;20.85;4.50;;;15.90;54.00;;;;;;5042773;28;20474;-68
2021/03/11 09:25:25;;;;;;;20.50;3.78;;;15.90;54.40;;;;;;5013978;28;20040;-67
2021/03/11 09:28:06;;;;;;;17.35;4.22;;;15.90;54.10;;;;;;5017213;28;20033;-67
2021/03/11 09:30:35;;;;;;;13.48;3.90;;;16.10;54.10;;;;;;5014095;28;20040;-67
2021/03/11 09:33:27;;;;;;;21.63;4.70;;;16.20;53.70;;;;;;5034978;28;20037;-69
2021/03/11 09:35:53;;;;;;;20.95;5.93;;;16.20;52.60;;;;;;5036296;28;20044;-67
2021/03/11 09:38:26;;;;;;;28.25;6.68;;;16.10;52.10;;;;;;5052834;28;20025;-67
2021/03/11 09:41:01;;;;;;;25.80;6.85;;;16.30;52.00;;;;;;5050160;28;20045;-67
2021/03/11 09:43:45;;;;;;;25.30;6.93;;;16.30;51.40;;;;;;5047569;28;20020;-68
2021/03/11 09:46:20;;;;;;;21.30;6.03;;;16.50;50.80;;;;;;5027746;28;20079;-67
2021/03/11 09:48:50;;;;;;;21.27;5.70;;;16.50;50.80;;;;;;5012162;28;20037;-68
2021/03/11 09:51:23;;;;;;;20.33;5.35;;;16.40;50.70;;;;;;5036149;28;20051;-68
2021/03/11 09:54:06;;;;;;;21.75;5.38;;;16.40;50.60;;;;;;5051844;28;20036;-67
2021/03/11 09:56:44;;;;;;;19.87;5.10;;;16.30;50.30;;;;;;5033346;28;20043;-67
2021/03/11 09:59:12;;;;;;;20.52;5.97;;;16.20;50.10;;;;;;5031566;28;20275;-68
2021/03/11 10:01:49;;;;;;;21.55;6.35;;;16.00;50.30;;;;;;5047954;28;20040;-67
2021/03/11 10:04:23;;;;;;;20.98;6.22;;;15.90;50.50;;;;;;5051292;28;20021;-67
2021/03/11 10:06:50;;;;;;;29.50;6.05;;;15.80;51.20;;;;;;5043503;28;20020;-67
2021/03/11 10:09:15;;;;;;;24.27;6.25;;;15.70;51.70;;;;;;5021796;28;20074;-67
2021/03/11 10:11:43;;;;;;;17.50;5.15;;;15.70;51.20;;;;;;5049604;28;20029;-67
2021/03/11 10:14:30;;;;;;;19.35;5.63;;;15.70;51.30;;;;;;5053037;28;20094;-67
2021/03/11 10:17:02;;;;;;;22.80;5.68;;;15.70;51.70;;;;;;5032813;28;20044;-67
2021/03/11 10:19:28;;;;;;;22.35;5.22;;;15.60;52.40;;;;;;5031065;28;20497;-67
2021/03/11 10:21:55;;;;;;;21.27;5.38;;;15.50;51.90;;;;;;5050832;28;20055;-67
2021/03/11 10:24:42;;;;;;;17.75;4.50;;;15.40;52.10;;;;;;5048416;28;20166;-68
2021/03/11 10:27:33;;;;;;;22.10;4.88;;;15.30;52.80;;;;;;5038509;28;20025;-67
2021/03/11 10:30:20;;;;;;;20.35;4.80;;;15.30;52.60;;;;;;5050672;28;20024;-67
2021/03/11 10:32:59;;;;;;;20.67;5.25;;;15.40;53.10;;;;;;5050077;28;20086;-67
2021/03/11 10:35:35;;;;;;;26.48;6.20;;;15.60;52.80;;;;;;5050911;28;20105;-67
2021/03/11 10:38:29;;;;;;;17.13;4.47;;;15.60;52.70;;;;;;5047705;28;20036;-67
2021/03/11 10:41:13;;;;;;;20.58;5.47;;;15.60;52.80;;;;;;5051185;28;20447;-67
2021/03/11 10:43:39;;;;;;;;;;;15.60;52.50;;;;;;5048674;28;20020;-67
2021/03/11 10:46:05;;;;;;;21.48;5.85;;;15.70;52.30;;;;;;5045845;28;20374;-67
2021/03/11 10:48:50;;;;;;;18.27;5.18;;;15.60;52.90;;;;;;5013831;28;20034;-68
2021/03/11 10:51:17;;;;;;;26.60;6.18;;;15.60;53.40;;;;;;5037160;28;20108;-67
2021/03/11 10:53:43;;;;;;;19.27;5.70;;;15.70;52.80;;;;;;5043979;28;20029;-67
2021/03/11 10:56:09;;;;;;;18.10;4.70;;;15.80;52.30;;;;;;5044206;28;20112;-67
2021/03/11 10:58:34;;;;;;;21.00;4.60;;;15.90;52.00;;;;;;5033223;28;20033;-67
2021/03/11 11:01:25;;;;;;;15.57;5.05;;;15.80;52.00;;;;;;5050529;28;20049;-67
2021/03/11 11:03:53;;;;;;;20.73;5.53;;;15.70;52.30;;;;;;5031980;28;20068;-67
2021/03/11 11:06:20;;;;;;;19.80;5.78;;;15.70;52.70;;;;;;5033596;28;20119;-67
2021/03/11 11:08:46;;;;;;;27.75;7.18;;;15.50;54.50;;;;;;5021329;28;20126;-68
2021/03/11 11:11:13;;;;;;;17.48;5.72;;;15.30;55.00;;;;;;5021667;28;20465;-68
2021/03/11 11:13:39;;;;;;;22.13;6.40;;;15.30;55.40;;;;;;5049977;28;20017;-68
2021/03/11 11:16:05;;;;;;;23.38;4.82;;;15.30;55.00;;;;;;5047545;28;20522;-67
2021/03/11 11:18:31;;;;;;;23.92;5.65;;;15.30;54.80;;;;;;5034177;28;20040;-68
2021/03/11 11:20:58;;;;;;;18.38;4.47;;;15.20;55.00;;;;;;5030610;28;20038;-66
2021/03/11 11:23:23;;;;;;;19.35;5.30;;;15.20;55.40;;;;;;5030085;28;20040;-66
2021/03/11 11:25:49;;;;;;;18.80;4.88;;;15.20;54.20;;;;;;5030747;28;20029;-67
2021/03/11 11:28:15;;;;;;;20.70;5.85;;;15.20;54.50;;;;;;5029739;28;20024;-67
2021/03/11 11:30:41;;;;;;;18.85;4.72;;;15.20;53.40;;;;;;5047104;28;20128;-68
2021/03/11 11:33:07;;;;;;;24.80;4.88;;;15.10;53.20;;;;;;5023818;28;20111;-68
2021/03/11 11:35:33;;;;;;;18.80;4.07;;;15.20;53.20;;;;;;5048910;28;20074;-68
2021/03/11 11:37:58;;;;;;;21.77;4.22;;;15.30;53.10;;;;;;4992927;28;20113;-68
2021/03/11 11:40:25;;;;;;;19.50;5.43;;;15.30;52.40;;;;;;5045359;28;20103;-68
2021/03/11 11:42:50;;;;;;;17.73;4.30;;;15.40;52.60;;;;;;5044914;28;20246;-68
2021/03/11 11:45:16;;;;;;;23.67;5.10;;;15.40;52.50;;;;;;5046876;28;20055;-68
2021/03/11 11:47:42;;;;;;;22.55;5.38;;;15.40;52.50;;;;;;5045894;28;20036;-67
2021/03/11 11:50:10;;;;;;;23.42;4.20;;;15.40;52.10;;;;;;5046977;28;20468;-66
2021/03/11 11:52:37;;;;;;;15.65;4.72;;;15.40;52.30;;;;;;5044923;28;20031;-67
2021/03/11 11:55:05;;;;;;;21.98;4.80;;;15.40;52.60;;;;;;5027945;28;20044;-67
2021/03/11 11:57:31;;;;;;;38.13;6.18;;;15.40;52.60;;;;;;5027799;28;20037;-68
2021/03/11 11:59:57;;;;;;;21.45;4.47;;;15.40;53.00;;;;;;5047189;28;20182;-66
2021/03/11 12:02:23;;;;;;;22.75;5.13;;;15.40;52.70;;;;;;5031392;28;20112;-65
2021/03/11 12:04:49;;;;;;;19.63;5.28;;;15.50;52.80;;;;;;5038519;28;20033;-66
2021/03/11 12:07:14;;;;;;;20.20;4.32;;;15.60;52.70;;;;;;5044781;28;20111;-66
2021/03/11 12:09:40;;;;;;;18.08;4.55;;;15.70;52.60;;;;;;5031791;28;20470;-66
2021/03/11 12:12:06;;;;;;;16.42;5.00;;;15.70;52.40;;;;;;5020947;28;20057;-66
2021/03/11 12:14:32;;;;;;;18.95;4.45;;;15.60;52.10;;;;;;5046669;28;20025;-67
2021/03/11 12:16:58;;;;;;;16.08;4.05;;;15.50;52.00;;;;;;5019560;28;20067;-67
2021/03/11 12:19:24;;;;;;;15.23;3.72;;;15.40;51.80;;;;;;5048909;28;20060;-67
2021/03/11 12:21:50;;;;;;;14.95;3.53;;;15.50;51.90;;;;;;5030865;28;20118;-66
2021/03/11 12:24:15;;;;;;;22.30;4.88;;;15.70;50.30;;;;;;5047614;28;20036;-66
2021/03/11 12:26:41;;;;;;;15.82;3.13;;;15.60;50.70;;;;;;5030366;28;20063;-65
2021/03/11 12:29:07;;;;;;;18.17;4.65;;;15.50;50.80;;;;;;5047950;28;20037;-66
2021/03/11 12:31:33;;;;;;;13.18;4.32;;;15.50;51.10;;;;;;5013169;28;20207;-66
2021/03/11 12:33:59;;;;;;;13.77;3.45;;;15.50;51.60;;;;;;5049219;28;20041;-66
2021/03/11 12:36:26;;;;;;;17.10;4.40;;;15.40;51.30;;;;;;5030477;28;20134;-67
2021/03/11 12:38:52;;;;;;;12.23;3.45;;;15.50;51.40;;;;;;5048934;28;20052;-67
2021/03/11 12:41:22;;;;;;;19.52;3.88;;;15.60;51.70;;;;;;5048169;28;20044;-66
2021/03/11 12:43:48;;;;;;;18.17;3.97;;;15.70;51.60;;;;;;5031949;28;20167;-66
2021/03/11 12:46:14;;;;;;;14.25;3.58;;;15.80;50.80;;;;;;5048554;28;20037;-67